Lake Luzerne, New York
Current Conditions -  °F | °C
As of 6:53 AM on Friday 19 Dec 2014 (Local Time) from KGFL Reporting Station
Overcast Overcast  
Wind Chill: 20°   Ceiling: 4400
Heat Index: 29°   Visibility: 10mi
Dew Point: 19°   Wind: 9mph
Humidity: 67%   Direction: 340°NNW
Pressure: 29.99"   Gusts: NA
Location:  43.31°N, 73.83°W
Report Text: KGFL 191153Z AUTO 34008KT 10SM BKN044 OVC050 M02/M07 A2999 RMK AO2 SLP163 T10171072 10000 21017 53017
Loading
Personal Weather Stations






























Interactive Weather Map New forecast layout! Learn more

10-Day Weather Forecast

Advertisements
Track Severe Weather on mobile